sensor_id;sensor_type;location;lat;lon;timestamp;P1;durP1;ratioP1;P2;durP2;ratioP2
2766;SDS011;1391;46.742;11.636;2023-03-01T00:01:31;4.60;;;3.30;;
2766;SDS011;1391;46.742;11.636;2023-03-01T00:03:58;4.83;;;3.27;;
2766;SDS011;1391;46.742;11.636;2023-03-01T00:06:28;3.83;;;2.83;;
2766;SDS011;1391;46.742;11.636;2023-03-01T00:08:57;5.80;;;3.60;;
2766;SDS011;1391;46.742;11.636;2023-03-01T00:11:28;4.67;;;3.67;;
2766;SDS011;1391;46.742;11.636;2023-03-01T00:14:04;3.87;;;3.13;;
2766;SDS011;1391;46.742;11.636;2023-03-01T00:16:40;3.90;;;2.83;;
2766;SDS011;1391;46.742;11.636;2023-03-01T00:19:20;3.63;;;2.87;;
2766;SDS011;1391;46.742;11.636;2023-03-01T00:25:41;3.27;;;2.97;;
2766;SDS011;1391;46.742;11.636;2023-03-01T00:28:09;4.87;;;3.20;;
2766;SDS011;1391;46.742;11.636;2023-03-01T00:33:33;5.87;;;3.20;;
2766;SDS011;1391;46.742;11.636;2023-03-01T00:36:07;3.93;;;3.10;;
2766;SDS011;1391;46.742;11.636;2023-03-01T00:38:38;5.13;;;3.33;;
2766;SDS011;1391;46.742;11.636;2023-03-01T00:41:08;4.43;;;2.90;;
2766;SDS011;1391;46.742;11.636;2023-03-01T00:43:37;5.57;;;3.30;;
2766;SDS011;1391;46.742;11.636;2023-03-01T00:46:05;5.23;;;2.90;;
2766;SDS011;1391;46.742;11.636;2023-03-01T00:48:38;4.63;;;3.47;;
2766;SDS011;1391;46.742;11.636;2023-03-01T00:51:09;4.37;;;3.20;;
2766;SDS011;1391;46.742;11.636;2023-03-01T00:53:43;3.53;;;3.03;;
2766;SDS011;1391;46.742;11.636;2023-03-01T00:56:20;5.43;;;3.17;;
2766;SDS011;1391;46.742;11.636;2023-03-01T00:59:05;4.80;;;3.33;;
2766;SDS011;1391;46.742;11.636;2023-03-01T01:01:32;5.53;;;3.63;;
2766;SDS011;1391;46.742;11.636;2023-03-01T01:10:56;4.67;;;3.57;;
2766;SDS011;1391;46.742;11.636;2023-03-01T01:23:07;4.90;;;3.17;;
2766;SDS011;1391;46.742;11.636;2023-03-01T01:25:35;6.93;;;3.63;;
2766;SDS011;1391;46.742;11.636;2023-03-01T01:28:04;3.83;;;3.00;;
2766;SDS011;1391;46.742;11.636;2023-03-01T01:30:31;5.90;;;3.63;;
2766;SDS011;1391;46.742;11.636;2023-03-01T01:33:12;3.23;;;2.90;;
2766;SDS011;1391;46.742;11.636;2023-03-01T01:36:15;7.17;;;3.17;;
2766;SDS011;1391;46.742;11.636;2023-03-01T01:41:41;5.70;;;3.57;;
2766;SDS011;1391;46.742;11.636;2023-03-01T01:48:10;5.03;;;3.10;;
2766;SDS011;1391;46.742;11.636;2023-03-01T01:50:45;3.60;;;2.93;;
2766;SDS011;1391;46.742;11.636;2023-03-01T01:53:26;4.63;;;3.23;;
2766;SDS011;1391;46.742;11.636;2023-03-01T01:58:53;3.87;;;3.00;;
2766;SDS011;1391;46.742;11.636;2023-03-01T02:01:36;6.77;;;2.80;;
2766;SDS011;1391;46.742;11.636;2023-03-01T02:04:08;3.17;;;2.50;;
2766;SDS011;1391;46.742;11.636;2023-03-01T02:07:00;3.03;;;2.57;;
2766;SDS011;1391;46.742;11.636;2023-03-01T02:09:39;3.37;;;2.27;;
2766;SDS011;1391;46.742;11.636;2023-03-01T02:12:25;3.10;;;2.50;;
2766;SDS011;1391;46.742;11.636;2023-03-01T02:15:13;4.17;;;2.77;;
2766;SDS011;1391;46.742;11.636;2023-03-01T02:17:40;3.93;;;2.70;;
2766;SDS011;1391;46.742;11.636;2023-03-01T02:20:11;4.43;;;3.10;;
2766;SDS011;1391;46.742;11.636;2023-03-01T02:22:48;5.60;;;3.00;;
2766;SDS011;1391;46.742;11.636;2023-03-01T02:25:38;4.83;;;3.13;;
2766;SDS011;1391;46.742;11.636;2023-03-01T02:28:24;5.57;;;3.37;;
2766;SDS011;1391;46.742;11.636;2023-03-01T02:30:59;5.30;;;3.07;;
2766;SDS011;1391;46.742;11.636;2023-03-01T02:34:18;6.33;;;3.23;;
2766;SDS011;1391;46.742;11.636;2023-03-01T02:36:52;4.03;;;2.80;;
2766;SDS011;1391;46.742;11.636;2023-03-01T02:39:51;4.90;;;2.90;;
2766;SDS011;1391;46.742;11.636;2023-03-01T02:42:27;5.53;;;3.20;;
2766;SDS011;1391;46.742;11.636;2023-03-01T02:45:00;4.90;;;2.90;;
2766;SDS011;1391;46.742;11.636;2023-03-01T02:47:27;4.47;;;3.37;;
2766;SDS011;1391;46.742;11.636;2023-03-01T02:49:56;4.17;;;3.17;;
2766;SDS011;1391;46.742;11.636;2023-03-01T02:52:26;4.93;;;3.33;;
2766;SDS011;1391;46.742;11.636;2023-03-01T02:55:06;4.60;;;3.20;;
2766;SDS011;1391;46.742;11.636;2023-03-01T02:57:38;7.50;;;3.30;;
2766;SDS011;1391;46.742;11.636;2023-03-01T03:00:15;5.50;;;3.50;;
2766;SDS011;1391;46.742;11.636;2023-03-01T03:02:53;5.80;;;2.83;;
2766;SDS011;1391;46.742;11.636;2023-03-01T03:05:41;3.50;;;2.50;;
2766;SDS011;1391;46.742;11.636;2023-03-01T05:22:00;4.43;;;3.00;;
2766;SDS011;1391;46.742;11.636;2023-03-01T05:24:30;4.60;;;2.50;;
2766;SDS011;1391;46.742;11.636;2023-03-01T05:27:03;3.10;;;2.27;;
2766;SDS011;1391;46.742;11.636;2023-03-01T05:29:46;3.70;;;2.00;;
2766;SDS011;1391;46.742;11.636;2023-03-01T05:32:29;5.33;;;2.60;;
2766;SDS011;1391;46.742;11.636;2023-03-01T05:34:57;2.77;;;2.33;;
2766;SDS011;1391;46.742;11.636;2023-03-01T05:37:25;5.77;;;2.50;;
2766;SDS011;1391;46.742;11.636;2023-03-01T05:39:54;3.63;;;2.50;;
2766;SDS011;1391;46.742;11.636;2023-03-01T05:42:21;3.17;;;2.60;;
2766;SDS011;1391;46.742;11.636;2023-03-01T05:44:52;4.80;;;2.90;;
2766;SDS011;1391;46.742;11.636;2023-03-01T05:47:24;4.90;;;3.37;;
2766;SDS011;1391;46.742;11.636;2023-03-01T05:49:54;5.80;;;2.50;;
2766;SDS011;1391;46.742;11.636;2023-03-01T05:52:21;2.70;;;2.20;;
2766;SDS011;1391;46.742;11.636;2023-03-01T05:54:51;2.40;;;1.90;;
2766;SDS011;1391;46.742;11.636;2023-03-01T05:57:19;3.23;;;2.00;;
2766;SDS011;1391;46.742;11.636;2023-03-01T05:59:47;2.50;;;1.90;;
2766;SDS011;1391;46.742;11.636;2023-03-01T06:02:15;2.20;;;1.80;;
2766;SDS011;1391;46.742;11.636;2023-03-01T06:04:42;3.70;;;2.27;;
2766;SDS011;1391;46.742;11.636;2023-03-01T06:07:11;3.87;;;2.70;;
2766;SDS011;1391;46.742;11.636;2023-03-01T06:09:39;3.57;;;2.63;;
2766;SDS011;1391;46.742;11.636;2023-03-01T06:12:10;3.77;;;2.70;;
2766;SDS011;1391;46.742;11.636;2023-03-01T06:14:40;3.67;;;2.67;;
2766;SDS011;1391;46.742;11.636;2023-03-01T06:17:07;5.10;;;2.80;;
2766;SDS011;1391;46.742;11.636;2023-03-01T06:19:38;5.77;;;2.43;;
2766;SDS011;1391;46.742;11.636;2023-03-01T06:22:10;7.20;;;2.47;;
2766;SDS011;1391;46.742;11.636;2023-03-01T06:24:37;3.87;;;2.07;;
2766;SDS011;1391;46.742;11.636;2023-03-01T06:27:06;4.83;;;2.27;;
2766;SDS011;1391;46.742;11.636;2023-03-01T06:29:35;2.77;;;1.80;;
2766;SDS011;1391;46.742;11.636;2023-03-01T06:32:02;2.67;;;2.00;;
2766;SDS011;1391;46.742;11.636;2023-03-01T06:34:30;3.03;;;2.43;;
2766;SDS011;1391;46.742;11.636;2023-03-01T06:36:57;9.17;;;2.40;;
2766;SDS011;1391;46.742;11.636;2023-03-01T06:39:27;10.37;;;2.40;;
2766;SDS011;1391;46.742;11.636;2023-03-01T06:41:55;5.07;;;2.10;;
2766;SDS011;1391;46.742;11.636;2023-03-01T06:44:24;3.37;;;2.20;;
2766;SDS011;1391;46.742;11.636;2023-03-01T06:46:53;3.00;;;2.20;;
2766;SDS011;1391;46.742;11.636;2023-03-01T06:49:20;2.67;;;2.00;;
2766;SDS011;1391;46.742;11.636;2023-03-01T06:51:50;4.50;;;2.30;;
2766;SDS011;1391;46.742;11.636;2023-03-01T06:54:17;9.17;;;2.23;;
2766;SDS011;1391;46.742;11.636;2023-03-01T06:56:48;2.07;;;1.80;;
2766;SDS011;1391;46.742;11.636;2023-03-01T06:59:16;6.50;;;2.43;;
2766;SDS011;1391;46.742;11.636;2023-03-01T07:01:48;2.90;;;1.87;;
2766;SDS011;1391;46.742;11.636;2023-03-01T07:04:16;2.73;;;1.70;;
2766;SDS011;1391;46.742;11.636;2023-03-01T07:06:44;5.53;;;2.27;;
2766;SDS011;1391;46.742;11.636;2023-03-01T07:09:11;3.27;;;1.97;;
2766;SDS011;1391;46.742;11.636;2023-03-01T07:11:38;9.50;;;2.00;;
2766;SDS011;1391;46.742;11.636;2023-03-01T07:14:06;4.43;;;2.00;;
2766;SDS011;1391;46.742;11.636;2023-03-01T07:16:33;3.90;;;2.10;;
2766;SDS011;1391;46.742;11.636;2023-03-01T07:19:01;3.70;;;1.97;;
2766;SDS011;1391;46.742;11.636;2023-03-01T07:21:36;7.90;;;1.83;;
2766;SDS011;1391;46.742;11.636;2023-03-01T07:24:11;4.40;;;1.80;;
2766;SDS011;1391;46.742;11.636;2023-03-01T07:26:48;3.73;;;1.83;;
2766;SDS011;1391;46.742;11.636;2023-03-01T07:29:27;4.03;;;1.93;;
2766;SDS011;1391;46.742;11.636;2023-03-01T07:31:59;2.80;;;2.00;;
2766;SDS011;1391;46.742;11.636;2023-03-01T07:34:42;2.90;;;2.10;;
2766;SDS011;1391;46.742;11.636;2023-03-01T07:37:29;3.23;;;1.93;;
2766;SDS011;1391;46.742;11.636;2023-03-01T07:40:01;5.60;;;2.47;;
2766;SDS011;1391;46.742;11.636;2023-03-01T07:42:43;4.60;;;2.10;;
2766;SDS011;1391;46.742;11.636;2023-03-01T07:45:13;3.33;;;2.00;;
2766;SDS011;1391;46.742;11.636;2023-03-01T07:48:04;6.60;;;2.20;;
2766;SDS011;1391;46.742;11.636;2023-03-01T07:50:36;18.23;;;2.47;;
2766;SDS011;1391;46.742;11.636;2023-03-01T07:53:14;8.07;;;2.60;;
2766;SDS011;1391;46.742;11.636;2023-03-01T07:55:45;8.23;;;2.70;;
2766;SDS011;1391;46.742;11.636;2023-03-01T07:58:14;6.10;;;2.30;;
2766;SDS011;1391;46.742;11.636;2023-03-01T08:00:43;6.63;;;2.40;;
2766;SDS011;1391;46.742;11.636;2023-03-01T08:03:11;9.57;;;2.10;;
2766;SDS011;1391;46.742;11.636;2023-03-01T08:05:38;7.77;;;2.47;;
2766;SDS011;1391;46.742;11.636;2023-03-01T08:08:05;4.13;;;2.20;;
2766;SDS011;1391;46.742;11.636;2023-03-01T08:10:42;9.03;;;2.70;;
2766;SDS011;1391;46.742;11.636;2023-03-01T08:13:12;3.23;;;2.13;;
2766;SDS011;1391;46.742;11.636;2023-03-01T08:15:51;5.73;;;2.53;;
2766;SDS011;1391;46.742;11.636;2023-03-01T08:18:22;7.47;;;2.50;;
2766;SDS011;1391;46.742;11.636;2023-03-01T08:20:56;3.20;;;2.00;;
2766;SDS011;1391;46.742;11.636;2023-03-01T08:23:48;9.63;;;2.40;;
2766;SDS011;1391;46.742;11.636;2023-03-01T09:23:02;5.13;;;2.33;;
2766;SDS011;1391;46.742;11.636;2023-03-01T09:25:29;3.43;;;2.37;;
2766;SDS011;1391;46.742;11.636;2023-03-01T09:27:56;3.73;;;2.23;;
2766;SDS011;1391;46.742;11.636;2023-03-01T09:30:24;4.57;;;2.60;;
2766;SDS011;1391;46.742;11.636;2023-03-01T09:32:56;6.07;;;2.13;;
2766;SDS011;1391;46.742;11.636;2023-03-01T09:35:36;3.93;;;1.70;;
2766;SDS011;1391;46.742;11.636;2023-03-01T09:38:14;4.80;;;1.87;;
2766;SDS011;1391;46.742;11.636;2023-03-01T09:40:45;3.30;;;2.03;;
2766;SDS011;1391;46.742;11.636;2023-03-01T09:43:26;4.27;;;2.13;;
2766;SDS011;1391;46.742;11.636;2023-03-01T20:12:27;3.73;;;1.70;;
2766;SDS011;1391;46.742;11.636;2023-03-01T20:14:54;3.37;;;1.87;;
2766;SDS011;1391;46.742;11.636;2023-03-01T20:17:26;3.80;;;1.80;;
2766;SDS011;1391;46.742;11.636;2023-03-01T20:19:54;7.60;;;1.97;;
2766;SDS011;1391;46.742;11.636;2023-03-01T20:22:45;7.17;;;1.70;;
2766;SDS011;1391;46.742;11.636;2023-03-01T20:25:44;3.97;;;1.60;;
2766;SDS011;1391;46.742;11.636;2023-03-01T20:28:15;2.53;;;1.70;;
2766;SDS011;1391;46.742;11.636;2023-03-01T20:30:45;3.93;;;1.63;;
2766;SDS011;1391;46.742;11.636;2023-03-01T20:33:12;3.00;;;1.53;;
2766;SDS011;1391;46.742;11.636;2023-03-01T20:35:41;2.57;;;1.80;;
2766;SDS011;1391;46.742;11.636;2023-03-01T20:38:09;4.33;;;1.80;;
2766;SDS011;1391;46.742;11.636;2023-03-01T20:40:36;2.40;;;1.40;;
2766;SDS011;1391;46.742;11.636;2023-03-01T20:43:03;2.40;;;1.50;;
2766;SDS011;1391;46.742;11.636;2023-03-01T20:45:32;5.37;;;1.60;;
2766;SDS011;1391;46.742;11.636;2023-03-01T20:47:59;1.97;;;1.27;;
2766;SDS011;1391;46.742;11.636;2023-03-01T20:50:26;4.47;;;1.80;;
2766;SDS011;1391;46.742;11.636;2023-03-01T20:52:54;1.90;;;1.40;;
2766;SDS011;1391;46.742;11.636;2023-03-01T20:55:21;3.13;;;1.40;;
2766;SDS011;1391;46.742;11.636;2023-03-01T20:57:48;4.63;;;1.70;;
2766;SDS011;1391;46.742;11.636;2023-03-01T21:00:16;2.77;;;1.30;;
2766;SDS011;1391;46.742;11.636;2023-03-01T21:02:45;2.47;;;1.33;;
2766;SDS011;1391;46.742;11.636;2023-03-01T21:05:12;5.37;;;1.97;;
2766;SDS011;1391;46.742;11.636;2023-03-01T21:07:39;1.67;;;1.30;;
2766;SDS011;1391;46.742;11.636;2023-03-01T21:10:08;2.60;;;1.30;;
2766;SDS011;1391;46.742;11.636;2023-03-01T21:12:36;4.57;;;1.40;;
2766;SDS011;1391;46.742;11.636;2023-03-01T21:15:05;1.90;;;1.30;;
2766;SDS011;1391;46.742;11.636;2023-03-01T21:17:33;3.27;;;1.40;;
2766;SDS011;1391;46.742;11.636;2023-03-01T21:20:03;6.70;;;1.60;;
2766;SDS011;1391;46.742;11.636;2023-03-01T21:22:31;3.27;;;1.67;;
2766;SDS011;1391;46.742;11.636;2023-03-01T21:24:59;3.53;;;1.60;;
2766;SDS011;1391;46.742;11.636;2023-03-01T21:27:26;1.70;;;1.37;;
2766;SDS011;1391;46.742;11.636;2023-03-01T21:29:54;1.57;;;1.20;;
2766;SDS011;1391;46.742;11.636;2023-03-01T21:32:22;4.00;;;1.27;;
2766;SDS011;1391;46.742;11.636;2023-03-01T21:34:50;2.83;;;1.27;;
2766;SDS011;1391;46.742;11.636;2023-03-01T21:37:18;2.33;;;1.13;;
2766;SDS011;1391;46.742;11.636;2023-03-01T21:39:52;5.20;;;1.30;;
2766;SDS011;1391;46.742;11.636;2023-03-01T21:42:19;1.80;;;1.20;;
2766;SDS011;1391;46.742;11.636;2023-03-01T21:44:46;2.90;;;1.53;;
2766;SDS011;1391;46.742;11.636;2023-03-01T21:47:14;1.63;;;1.20;;
2766;SDS011;1391;46.742;11.636;2023-03-01T21:49:41;1.10;;;1.00;;
2766;SDS011;1391;46.742;11.636;2023-03-01T21:52:08;1.00;;;0.93;;
2766;SDS011;1391;46.742;11.636;2023-03-01T21:54:42;1.20;;;0.90;;
2766;SDS011;1391;46.742;11.636;2023-03-01T21:57:10;0.83;;;0.80;;
2766;SDS011;1391;46.742;11.636;2023-03-01T21:59:38;1.10;;;0.80;;
2766;SDS011;1391;46.742;11.636;2023-03-01T22:02:05;1.50;;;1.00;;
2766;SDS011;1391;46.742;11.636;2023-03-01T22:04:36;1.07;;;0.90;;
2766;SDS011;1391;46.742;11.636;2023-03-01T22:07:03;1.00;;;0.90;;
2766;SDS011;1391;46.742;11.636;2023-03-01T22:09:31;1.73;;;1.20;;
2766;SDS011;1391;46.742;11.636;2023-03-01T22:12:04;1.00;;;0.90;;
2766;SDS011;1391;46.742;11.636;2023-03-01T22:14:32;1.70;;;1.30;;
2766;SDS011;1391;46.742;11.636;2023-03-01T22:16:59;1.90;;;1.03;;
2766;SDS011;1391;46.742;11.636;2023-03-01T22:19:27;1.57;;;1.17;;
2766;SDS011;1391;46.742;11.636;2023-03-01T22:21:54;1.27;;;1.03;;
2766;SDS011;1391;46.742;11.636;2023-03-01T22:24:22;2.23;;;1.30;;
2766;SDS011;1391;46.742;11.636;2023-03-01T22:26:50;1.70;;;1.27;;
2766;SDS011;1391;46.742;11.636;2023-03-01T22:29:21;1.63;;;1.10;;
2766;SDS011;1391;46.742;11.636;2023-03-01T22:31:50;2.87;;;1.10;;
2766;SDS011;1391;46.742;11.636;2023-03-01T22:34:18;2.20;;;1.30;;
2766;SDS011;1391;46.742;11.636;2023-03-01T22:36:46;1.07;;;0.97;;
2766;SDS011;1391;46.742;11.636;2023-03-01T22:39:14;2.60;;;1.07;;
2766;SDS011;1391;46.742;11.636;2023-03-01T22:41:44;1.40;;;1.30;;
2766;SDS011;1391;46.742;11.636;2023-03-01T22:44:14;2.67;;;1.60;;
2766;SDS011;1391;46.742;11.636;2023-03-01T22:46:45;1.57;;;1.00;;
2766;SDS011;1391;46.742;11.636;2023-03-01T22:49:13;5.27;;;1.20;;
2766;SDS011;1391;46.742;11.636;2023-03-01T22:51:41;4.10;;;1.50;;
2766;SDS011;1391;46.742;11.636;2023-03-01T22:54:11;1.60;;;1.20;;
2766;SDS011;1391;46.742;11.636;2023-03-01T22:56:39;1.97;;;1.33;;
2766;SDS011;1391;46.742;11.636;2023-03-01T22:59:08;1.73;;;0.90;;
2766;SDS011;1391;46.742;11.636;2023-03-01T23:01:38;2.50;;;1.10;;
2766;SDS011;1391;46.742;11.636;2023-03-01T23:04:10;1.07;;;0.97;;
2766;SDS011;1391;46.742;11.636;2023-03-01T23:06:37;1.40;;;1.17;;
2766;SDS011;1391;46.742;11.636;2023-03-01T23:09:14;1.57;;;1.00;;
2766;SDS011;1391;46.742;11.636;2023-03-01T23:11:43;2.67;;;1.47;;
2766;SDS011;1391;46.742;11.636;2023-03-01T23:14:10;1.30;;;1.00;;
2766;SDS011;1391;46.742;11.636;2023-03-01T23:16:37;2.00;;;1.00;;
2766;SDS011;1391;46.742;11.636;2023-03-01T23:19:04;1.00;;;0.97;;
2766;SDS011;1391;46.742;11.636;2023-03-01T23:21:33;1.00;;;0.90;;
2766;SDS011;1391;46.742;11.636;2023-03-01T23:24:01;1.80;;;1.03;;
2766;SDS011;1391;46.742;11.636;2023-03-01T23:26:28;4.20;;;1.40;;
2766;SDS011;1391;46.742;11.636;2023-03-01T23:28:56;2.47;;;1.10;;
2766;SDS011;1391;46.742;11.636;2023-03-01T23:31:23;1.87;;;1.10;;
2766;SDS011;1391;46.742;11.636;2023-03-01T23:33:54;1.93;;;1.40;;
2766;SDS011;1391;46.742;11.636;2023-03-01T23:36:23;1.23;;;1.00;;
2766;SDS011;1391;46.742;11.636;2023-03-01T23:38:54;3.20;;;1.13;;
2766;SDS011;1391;46.742;11.636;2023-03-01T23:41:24;1.80;;;1.47;;
2766;SDS011;1391;46.742;11.636;2023-03-01T23:43:55;2.27;;;1.23;;
2766;SDS011;1391;46.742;11.636;2023-03-01T23:46:26;1.40;;;1.30;;
2766;SDS011;1391;46.742;11.636;2023-03-01T23:48:56;1.93;;;1.23;;
2766;SDS011;1391;46.742;11.636;2023-03-01T23:51:24;1.73;;;1.30;;
2766;SDS011;1391;46.742;11.636;2023-03-01T23:53:55;1.20;;;1.10;;
2766;SDS011;1391;46.742;11.636;2023-03-01T23:56:26;2.97;;;1.20;;
2766;SDS011;1391;46.742;11.636;2023-03-01T23:58:57;1.23;;;1.13;;
